Time;durP1;ratioP1;P1;durP2;ratioP2;P2;SDS_P1;SDS_P2;PMS_P1;PMS_P2;Temp;Humidity;BMP_temperature;BMP_pressure;BME280_temperature;BME280_humidity;BME280_pressure;Samples;Min_cycle;Max_cycle;Signal;HPM_P1;HPM_P2
2023/02/21 02:15:12;;;;;;;33.50;18.20;;;9.00;99.90;;;;;;5050668;28;20341;-90
2023/02/21 02:17:51;;;;;;;38.20;19.27;;;9.00;99.90;;;;;;5053690;28;20199;-90
2023/02/21 02:21:02;;;;;;;36.93;19.87;;;9.00;99.90;;;;;;5039010;28;20310;-90
2023/02/21 02:24:11;;;;;;;40.07;21.13;;;9.00;99.90;;;;;;5041875;28;20213;-91
2023/02/21 02:27:20;;;;;;;38.03;20.50;;;9.00;99.90;;;;;;5054957;28;20223;-90
2023/02/21 02:30:15;;;;;;;36.13;19.77;;;9.00;99.90;;;;;;5034101;28;20298;-90
2023/02/21 02:33:15;;;;;;;35.80;20.13;;;9.10;99.90;;;;;;5052080;28;20668;-90
2023/02/21 02:35:49;;;;;;;33.17;18.07;;;9.00;99.90;;;;;;5051731;28;20199;-90
2023/02/21 02:38:23;;;;;;;36.40;19.27;;;9.10;99.90;;;;;;5052307;28;20294;-91
2023/02/21 02:40:59;;;;;;;38.63;19.63;;;9.00;99.90;;;;;;5063774;28;20225;-90
2023/02/21 02:43:31;;;;;;;37.10;18.93;;;9.00;99.90;;;;;;5071587;28;20218;-90
2023/02/21 02:46:04;;;;;;;32.20;17.73;;;9.00;99.90;;;;;;5059417;28;20218;-90
2023/02/21 02:48:35;;;;;;;30.10;16.90;;;9.00;99.90;;;;;;5052544;28;20226;-90
2023/02/21 02:51:08;;;;;;;29.30;18.33;;;9.20;99.90;;;;;;5051381;28;20231;-90
2023/02/21 02:53:35;;;;;;;35.23;18.90;;;9.00;99.90;;;;;;5050839;28;20206;-90
2023/02/21 02:56:04;;;;;;;32.97;18.03;;;9.10;99.90;;;;;;5052389;28;20214;-90
2023/02/21 02:58:34;;;;;;;30.43;16.90;;;9.00;99.90;;;;;;5052628;28;20675;-90
2023/02/21 03:01:14;;;;;;;35.60;19.93;;;9.00;99.90;;;;;;5044546;28;20222;-90
2023/02/21 03:03:58;;;;;;;32.33;18.37;;;9.00;99.90;;;;;;5051290;28;20238;-90
2023/02/21 03:06:34;;;;;;;35.27;18.60;;;9.00;99.90;;;;;;5045740;28;20294;-90
2023/02/21 03:09:08;;;;;;;33.17;17.97;;;9.00;99.90;;;;;;5043649;28;20206;-90
2023/02/21 03:11:42;;;;;;;30.23;15.97;;;9.00;99.90;;;;;;5048077;28;20234;-90
2023/02/21 03:14:14;;;;;;;33.70;19.23;;;9.00;99.90;;;;;;5032976;28;20252;-89
2023/02/21 03:16:46;;;;;;;33.10;17.23;;;9.00;99.90;;;;;;5050475;28;20597;-90
2023/02/21 03:19:17;;;;;;;30.77;16.87;;;8.90;99.90;;;;;;5055248;28;20213;-90
2023/02/21 03:21:49;;;;;;;31.60;17.63;;;9.00;99.90;;;;;;5052672;28;20280;-90
2023/02/21 03:24:18;;;;;;;30.50;17.60;;;9.10;99.90;;;;;;5053996;28;20278;-90
2023/02/21 03:26:48;;;;;;;33.07;17.60;;;9.00;99.90;;;;;;5044285;28;20209;-91
2023/02/21 03:29:17;;;;;;;32.87;17.53;;;8.90;99.90;;;;;;5063112;28;20198;-90
2023/02/21 03:31:46;;;;;;;31.90;18.37;;;8.90;99.90;;;;;;5057966;28;20743;-90
2023/02/21 03:34:13;;;;;;;32.57;18.27;;;9.00;99.90;;;;;;5049422;28;20282;-90
2023/02/21 03:36:41;;;;;;;32.57;18.47;;;8.90;99.90;;;;;;5056001;28;20286;-91
2023/02/21 03:39:10;;;;;;;32.87;18.03;;;8.90;99.90;;;;;;5054464;28;20203;-90
2023/02/21 03:41:36;;;;;;;31.77;18.03;;;8.80;99.90;;;;;;5059557;28;20606;-90
2023/02/21 03:44:03;;;;;;;29.47;15.90;;;8.80;99.90;;;;;;5053637;28;20584;-88
2023/02/21 03:46:30;;;;;;;31.13;17.23;;;8.80;99.90;;;;;;5067105;28;20193;-90
2023/02/21 03:48:57;;;;;;;30.57;16.47;;;8.80;99.90;;;;;;5078192;28;20286;-91
2023/02/21 03:51:23;;;;;;;32.23;16.40;;;8.70;99.90;;;;;;5067958;28;20254;-91
2023/02/21 03:53:50;;;;;;;30.93;17.43;;;8.80;99.90;;;;;;5045980;28;20207;-88
2023/02/21 03:56:18;;;;;;;32.20;18.37;;;8.70;99.90;;;;;;5055593;28;20191;-86
2023/02/21 03:58:45;;;;;;;31.77;17.47;;;8.70;99.90;;;;;;5036598;28;20569;-88
2023/02/21 04:01:12;;;;;;;35.43;19.00;;;8.70;99.90;;;;;;5041804;28;20215;-89
2023/02/21 04:03:39;;;;;;;35.03;19.17;;;8.90;99.90;;;;;;5054955;28;20249;-88
2023/02/21 04:06:06;;;;;;;33.53;17.77;;;8.70;99.90;;;;;;5041576;28;20671;-90
2023/02/21 04:08:33;;;;;;;32.53;17.83;;;8.70;99.90;;;;;;5045461;28;20224;-90
2023/02/21 04:11:03;;;;;;;34.67;18.03;;;8.70;99.90;;;;;;5035731;28;20284;-92
2023/02/21 04:13:31;;;;;;;34.83;18.17;;;8.70;99.90;;;;;;5039415;28;20203;-91
2023/02/21 04:15:58;;;;;;;37.13;18.67;;;8.60;99.90;;;;;;5054697;28;20477;-91
2023/02/21 04:18:25;;;;;;;36.47;19.73;;;8.90;99.90;;;;;;5054655;28;20256;-90
2023/02/21 04:20:52;;;;;;;37.67;18.63;;;8.80;99.90;;;;;;5051953;28;20233;-91
2023/02/21 04:23:20;;;;;;;39.10;18.53;;;8.80;99.90;;;;;;5034554;28;20702;-90
2023/02/21 04:25:48;;;;;;;38.23;19.43;;;9.10;99.90;;;;;;5051420;28;20207;-90
2023/02/21 04:28:14;;;;;;;38.33;21.60;;;9.00;99.90;;;;;;5048771;28;20302;-92
2023/02/21 04:30:43;;;;;;;37.43;20.33;;;9.00;99.90;;;;;;5048054;28;20609;-91
2023/02/21 04:33:10;;;;;;;42.77;22.27;;;9.00;99.90;;;;;;5039146;28;20637;-92
2023/02/21 04:35:37;;;;;;;40.87;21.33;;;9.00;99.90;;;;;;5034917;28;20207;-91
2023/02/21 04:38:04;;;;;;;44.87;22.67;;;9.00;99.90;;;;;;5034935;28;20267;-91
2023/02/21 04:40:30;;;;;;;46.43;23.20;;;9.00;99.90;;;;;;5034761;28;20231;-92
2023/02/21 04:42:57;;;;;;;42.30;22.27;;;9.10;99.90;;;;;;5034473;28;20583;-92
2023/02/21 04:45:24;;;;;;;43.30;22.43;;;9.10;99.90;;;;;;5034881;28;20215;-92
2023/02/21 04:47:52;;;;;;;41.53;22.20;;;9.10;99.90;;;;;;5034769;28;20302;-91
2023/02/21 04:50:20;;;;;;;40.87;22.23;;;9.10;99.90;;;;;;5034523;28;20692;-93
2023/02/21 04:52:47;;;;;;;42.03;22.17;;;9.10;99.90;;;;;;5034140;28;20699;-92
2023/02/21 04:55:15;;;;;;;42.57;23.53;;;9.10;99.90;;;;;;5034531;28;20208;-92
2023/02/21 04:57:42;;;;;;;45.53;23.87;;;9.10;99.90;;;;;;5034751;28;20231;-92
2023/02/21 05:00:12;;;;;;;41.77;22.43;;;9.10;99.90;;;;;;5034473;28;20607;-92
2023/02/21 05:02:42;;;;;;;42.43;23.03;;;9.10;99.90;;;;;;5034098;28;20545;-92
2023/02/21 05:05:11;;;;;;;43.07;22.80;;;9.10;99.90;;;;;;5034110;28;20218;-92
2023/02/21 05:07:38;;;;;;;38.20;21.17;;;9.10;99.90;;;;;;5034216;28;20226;-92
2023/02/21 05:10:05;;;;;;;37.90;20.63;;;9.20;99.90;;;;;;5034254;28;20314;-91
2023/02/21 05:12:32;;;;;;;36.43;19.97;;;9.20;99.90;;;;;;5033921;28;20625;-92
2023/02/21 05:14:59;;;;;;;40.00;22.63;;;9.20;99.90;;;;;;5033526;28;20673;-92
2023/02/21 05:17:27;;;;;;;35.97;19.90;;;9.20;99.90;;;;;;5034011;28;20717;-91
2023/02/21 05:19:57;;;;;;;38.60;19.73;;;9.10;99.90;;;;;;5033818;28;20207;-92
2023/02/21 05:22:25;;;;;;;38.47;19.73;;;9.20;99.90;;;;;;5033613;28;20237;-92
2023/02/21 05:24:52;;;;;;;36.23;19.57;;;9.20;99.90;;;;;;5033601;28;20262;-91
2023/02/21 05:27:21;;;;;;;34.23;19.73;;;9.20;99.90;;;;;;5034296;28;20687;-92
2023/02/21 05:29:48;;;;;;;36.40;17.83;;;9.10;99.90;;;;;;5033788;28;20218;-92
2023/02/21 05:32:16;;;;;;;34.70;19.83;;;9.10;99.90;;;;;;5065919;28;20230;-91
2023/02/21 05:34:58;;;;;;;34.43;18.57;;;9.20;99.90;;;;;;5138097;27;20543;-85
2023/02/21 05:37:25;;;;;;;30.67;17.17;;;9.10;99.90;;;;;;5135010;27;20674;-85
2023/02/21 05:39:52;;;;;;;32.10;17.97;;;9.10;99.90;;;;;;5130685;28;20279;-86
2023/02/21 05:42:19;;;;;;;30.70;16.87;;;9.10;99.90;;;;;;5132403;27;20210;-87
2023/02/21 05:44:46;;;;;;;28.83;15.57;;;8.90;99.90;;;;;;5127519;27;20239;-86
2023/02/21 05:47:13;;;;;;;33.40;17.33;;;9.00;99.90;;;;;;5133113;28;20208;-87
2023/02/21 05:49:40;;;;;;;29.50;17.37;;;9.10;99.90;;;;;;5117100;27;20200;-86
2023/02/21 05:52:10;;;;;;;32.17;15.83;;;9.00;99.90;;;;;;5110978;28;20193;-87
2023/02/21 05:54:37;;;;;;;32.23;17.10;;;9.00;99.90;;;;;;5120182;28;20228;-86
2023/02/21 05:57:05;;;;;;;31.40;17.07;;;9.00;99.90;;;;;;5099355;28;20240;-86
2023/02/21 05:59:32;;;;;;;31.67;16.27;;;8.90;99.90;;;;;;5097692;28;20232;-86
2023/02/21 06:01:59;;;;;;;32.27;16.80;;;9.00;99.90;;;;;;5095921;28;20292;-86
2023/02/21 06:04:26;;;;;;;30.47;16.23;;;9.00;99.90;;;;;;5098136;28;20221;-86
2023/02/21 06:06:53;;;;;;;33.13;17.00;;;9.00;99.90;;;;;;5099228;28;20229;-85
2023/02/21 06:09:22;;;;;;;36.73;17.93;;;9.00;99.90;;;;;;5096936;28;20289;-85
2023/02/21 06:11:48;;;;;;;31.97;16.40;;;9.00;99.90;;;;;;5099374;28;20221;-85
2023/02/21 06:14:18;;;;;;;32.37;17.23;;;9.00;99.90;;;;;;5095765;28;20217;-86
2023/02/21 06:16:46;;;;;;;31.93;15.10;;;9.00;99.90;;;;;;5097550;28;20212;-86
2023/02/21 06:19:15;;;;;;;29.17;15.60;;;9.00;99.90;;;;;;5098663;28;20261;-84
2023/02/21 06:21:42;;;;;;;28.97;15.10;;;9.00;99.90;;;;;;5113683;28;20261;-87
2023/02/21 06:24:10;;;;;;;31.43;16.70;;;9.00;99.90;;;;;;5117772;28;20302;-85
2023/02/21 06:26:39;;;;;;;29.43;15.33;;;9.00;99.90;;;;;;5112096;28;20208;-85
2023/02/21 06:29:07;;;;;;;28.00;14.93;;;9.00;99.90;;;;;;5116617;28;20193;-87
2023/02/21 06:31:35;;;;;;;29.57;15.93;;;9.00;99.90;;;;;;5102075;28;20646;-86
2023/02/21 06:34:02;;;;;;;30.40;14.67;;;9.00;99.90;;;;;;5093765;28;20226;-86
2023/02/21 06:36:29;;;;;;;29.97;15.23;;;9.00;99.90;;;;;;5110351;28;20209;-85
2023/02/21 06:38:57;;;;;;;28.90;15.40;;;9.00;99.90;;;;;;5116272;28;20213;-86
2023/02/21 06:41:26;;;;;;;30.53;16.50;;;9.00;99.90;;;;;;5117621;28;20205;-86
2023/02/21 06:43:56;;;;;;;27.93;13.67;;;9.00;99.90;;;;;;5119663;28;20217;-86
2023/02/21 06:46:26;;;;;;;28.50;15.53;;;9.00;99.90;;;;;;5104597;28;20273;-87
2023/02/21 06:48:53;;;;;;;29.87;15.43;;;9.00;99.90;;;;;;5103963;28;20663;-86
2023/02/21 06:51:20;;;;;;;30.10;14.87;;;9.00;99.90;;;;;;5103916;28;20209;-86
2023/02/21 06:53:50;;;;;;;29.07;14.83;;;9.00;99.90;;;;;;5104284;28;20591;-86
2023/02/21 06:56:17;;;;;;;28.37;13.10;;;9.10;99.90;;;;;;5090448;28;20268;-86
2023/02/21 06:58:44;;;;;;;26.83;14.30;;;9.10;99.90;;;;;;5084757;28;20214;-85
2023/02/21 07:01:12;;;;;;;25.33;14.40;;;9.10;99.90;;;;;;5084130;28;20210;-86
2023/02/21 07:03:41;;;;;;;29.23;15.27;;;9.10;99.90;;;;;;5084425;28;20716;-85
2023/02/21 07:06:08;;;;;;;26.27;14.27;;;9.10;99.90;;;;;;5085422;28;20265;-87
2023/02/21 07:08:35;;;;;;;29.87;14.47;;;9.20;99.90;;;;;;5084077;28;20198;-86
2023/02/21 07:11:02;;;;;;;27.10;14.93;;;9.20;99.90;;;;;;5084338;28;20202;-86
2023/02/21 07:13:29;;;;;;;28.03;14.30;;;9.20;99.90;;;;;;5083798;28;20313;-86
2023/02/21 07:15:56;;;;;;;30.67;15.47;;;9.20;99.90;;;;;;5082207;28;20713;-86
2023/02/21 07:18:24;;;;;;;27.70;14.50;;;9.30;99.90;;;;;;5082437;28;20294;-86
2023/02/21 07:20:51;;;;;;;30.87;15.10;;;9.20;99.90;;;;;;5083274;28;20230;-86
2023/02/21 07:23:18;;;;;;;30.23;16.13;;;9.30;99.90;;;;;;5082768;28;20305;-86
2023/02/21 07:25:46;;;;;;;28.23;14.13;;;9.30;99.90;;;;;;5090440;28;20202;-85
2023/02/21 07:28:13;;;;;;;30.40;15.53;;;9.30;99.90;;;;;;5111644;28;20229;-85
2023/02/21 07:30:40;;;;;;;28.27;15.33;;;9.30;99.90;;;;;;5096500;28;20210;-86
2023/02/21 07:33:07;;;;;;;31.13;15.70;;;9.30;99.90;;;;;;5099355;28;20287;-86
2023/02/21 07:35:35;;;;;;;32.17;17.17;;;9.30;99.90;;;;;;5082741;28;20218;-86
2023/02/21 07:38:02;;;;;;;32.30;15.87;;;9.20;99.90;;;;;;5101252;28;20217;-86
2023/02/21 07:40:29;;;;;;;31.80;16.60;;;9.30;99.90;;;;;;5115909;28;20199;-86
2023/02/21 07:42:56;;;;;;;32.17;17.13;;;9.30;99.90;;;;;;5102513;28;20206;-87
2023/02/21 07:45:24;;;;;;;33.50;18.50;;;9.20;99.90;;;;;;5107144;28;20208;-86
2023/02/21 07:47:52;;;;;;;34.30;19.00;;;9.20;99.90;;;;;;5112743;28;20206;-86
2023/02/21 07:50:19;;;;;;;35.90;18.73;;;9.20;99.90;;;;;;5097020;28;20216;-86
2023/02/21 07:52:47;;;;;;;36.27;19.60;;;9.20;99.90;;;;;;5100187;28;20205;-87
2023/02/21 07:55:14;;;;;;;35.53;18.70;;;9.20;99.90;;;;;;5095048;28;20283;-87
2023/02/21 07:57:41;;;;;;;39.30;19.63;;;9.20;99.90;;;;;;5078279;28;20212;-86
2023/02/21 08:00:09;;;;;;;37.87;19.20;;;9.10;99.90;;;;;;5082352;28;20201;-87
2023/02/21 08:02:37;;;;;;;38.17;20.77;;;9.20;99.90;;;;;;5098804;28;20705;-87
2023/02/21 08:05:05;;;;;;;40.27;21.80;;;9.20;99.90;;;;;;5099252;28;20699;-87
2023/02/21 08:07:32;;;;;;;38.23;19.20;;;9.20;99.90;;;;;;5098898;28;20201;-86
2023/02/21 08:10:00;;;;;;;36.63;20.10;;;9.20;99.90;;;;;;5099331;28;20217;-86
2023/02/21 08:12:27;;;;;;;34.83;19.13;;;9.20;99.90;;;;;;5096854;28;20657;-86
2023/02/21 08:14:53;;;;;;;37.57;18.90;;;9.20;99.90;;;;;;5099673;28;20660;-87
2023/02/21 08:17:20;;;;;;;36.13;18.30;;;9.30;99.90;;;;;;5101010;28;20249;-87
2023/02/21 08:19:47;;;;;;;37.00;19.23;;;9.20;99.90;;;;;;5098031;28;20565;-86
2023/02/21 08:22:14;;;;;;;33.80;18.57;;;9.20;99.90;;;;;;5098079;28;20208;-86
2023/02/21 08:24:41;;;;;;;34.03;17.37;;;9.20;99.90;;;;;;5099228;28;20245;-87
2023/02/21 08:27:10;;;;;;;32.97;16.67;;;9.30;99.90;;;;;;5099070;28;20202;-87
2023/02/21 08:29:37;;;;;;;31.43;17.23;;;9.30;99.90;;;;;;5098867;28;20229;-86
2023/02/21 08:32:04;;;;;;;33.60;17.33;;;9.30;99.90;;;;;;5095880;28;20288;-87
2023/02/21 08:34:31;;;;;;;31.97;17.63;;;9.30;99.90;;;;;;5098328;28;20290;-87
2023/02/21 08:36:58;;;;;;;33.30;17.60;;;9.30;99.90;;;;;;5109874;28;20592;-87
2023/02/21 08:39:28;;;;;;;31.53;16.07;;;9.30;99.90;;;;;;5100732;28;20205;-86
2023/02/21 08:41:55;;;;;;;36.67;18.93;;;9.40;99.90;;;;;;5095116;28;20217;-87
2023/02/21 08:44:23;;;;;;;33.87;17.23;;;9.40;99.90;;;;;;5095114;28;20308;-86
2023/02/21 08:46:50;;;;;;;34.73;18.30;;;9.40;99.90;;;;;;5076333;28;20228;-87
2023/02/21 08:49:17;;;;;;;32.30;17.67;;;9.50;99.90;;;;;;5075647;28;20593;-86
2023/02/21 08:51:44;;;;;;;32.93;17.50;;;9.40;99.90;;;;;;5077741;28;20203;-86
2023/02/21 08:54:11;;;;;;;35.47;18.20;;;9.50;99.90;;;;;;5078636;28;20690;-86
2023/02/21 08:56:38;;;;;;;32.47;17.07;;;9.50;99.90;;;;;;5087586;28;20202;-87
2023/02/21 08:59:05;;;;;;;32.77;17.17;;;9.50;99.90;;;;;;5100221;28;20208;-86
2023/02/21 09:01:35;;;;;;;33.20;17.73;;;9.50;99.90;;;;;;5082231;28;20666;-86
2023/02/21 09:04:03;;;;;;;31.20;17.10;;;9.50;99.90;;;;;;5076327;28;20238;-85
2023/02/21 09:06:31;;;;;;;30.27;16.20;;;9.50;99.90;;;;;;5075318;28;20210;-86
2023/02/21 09:08:57;;;;;;;30.80;15.97;;;9.70;99.90;;;;;;5097999;28;20207;-87
2023/02/21 09:11:24;;;;;;;26.80;15.27;;;9.60;99.90;;;;;;5092281;28;20209;-87
2023/02/21 09:13:54;;;;;;;28.20;14.67;;;9.60;99.90;;;;;;5087444;28;20240;-86
2023/02/21 09:16:21;;;;;;;27.97;15.27;;;9.70;99.90;;;;;;5076114;28;20202;-87
2023/02/21 09:18:56;;;;;;;28.83;14.40;;;9.70;99.90;;;;;;5074377;28;20224;-87
2023/02/21 09:21:22;;;;;;;25.13;12.87;;;9.70;99.90;;;;;;5080375;28;20201;-86
2023/02/21 09:23:53;;;;;;;26.00;13.80;;;9.70;99.90;;;;;;5112046;28;20304;-87
2023/02/21 09:26:22;;;;;;;25.53;13.37;;;9.90;99.90;;;;;;5089524;28;20198;-87
2023/02/21 09:28:50;;;;;;;26.30;13.97;;;9.90;99.90;;;;;;5089351;28;20205;-86
2023/02/21 09:31:17;;;;;;;30.70;13.87;;;10.00;99.90;;;;;;5084763;28;20225;-88
2023/02/21 09:33:44;;;;;;;31.13;15.90;;;9.90;99.90;;;;;;5074884;28;20230;-88
2023/02/21 09:36:12;;;;;;;31.73;16.30;;;10.00;99.90;;;;;;5089520;28;20270;-85
2023/02/21 09:38:40;;;;;;;32.03;17.67;;;10.00;99.90;;;;;;5096669;28;20265;-86
2023/02/21 09:41:09;;;;;;;32.37;16.80;;;10.00;99.90;;;;;;5094133;28;20205;-87
2023/02/21 09:43:39;;;;;;;33.17;17.40;;;10.10;99.90;;;;;;5097293;28;20218;-85
2023/02/21 09:46:11;;;;;;;35.07;17.80;;;10.10;99.90;;;;;;5096674;28;20288;-87
2023/02/21 09:48:38;;;;;;;34.97;17.50;;;10.10;99.90;;;;;;5094874;28;20205;-86
2023/02/21 09:51:08;;;;;;;36.50;19.37;;;10.10;99.90;;;;;;5094239;28;20208;-87
2023/02/21 09:53:39;;;;;;;34.83;18.80;;;10.10;99.90;;;;;;5094288;28;20232;-87
2023/02/21 09:56:11;;;;;;;34.57;18.07;;;10.10;99.90;;;;;;5094973;28;20243;-87
2023/02/21 09:58:42;;;;;;;34.67;18.03;;;10.20;99.90;;;;;;5097035;28;20645;-86
2023/02/21 10:01:20;;;;;;;35.67;18.13;;;10.20;99.90;;;;;;5095829;28;20189;-87
2023/02/21 10:03:54;;;;;;;33.73;17.97;;;10.20;99.90;;;;;;5093945;28;20225;-87
2023/02/21 10:06:30;;;;;;;36.27;18.77;;;10.20;99.90;;;;;;5095107;28;20231;-85
2023/02/21 10:09:02;;;;;;;37.57;18.63;;;10.30;99.90;;;;;;5094529;28;20207;-86
2023/02/21 10:11:38;;;;;;;31.73;17.23;;;10.40;99.90;;;;;;5093480;28;20198;-86
2023/02/21 10:14:17;;;;;;;33.30;16.93;;;10.40;99.90;;;;;;5097531;28;20217;-87
2023/02/21 10:16:50;;;;;;;29.23;16.83;;;10.40;99.90;;;;;;5095697;28;20201;-86
2023/02/21 10:19:24;;;;;;;29.90;16.37;;;10.50;99.90;;;;;;5096995;28;20208;-87
2023/02/21 10:21:57;;;;;;;31.20;16.50;;;10.50;99.90;;;;;;5099519;28;20210;-87
2023/02/21 10:24:27;;;;;;;34.90;17.07;;;10.50;99.90;;;;;;5101163;28;20236;-85
2023/02/21 10:27:01;;;;;;;31.63;16.83;;;10.50;99.90;;;;;;5099453;28;20577;-87
2023/02/21 10:29:37;;;;;;;31.23;17.20;;;10.70;99.90;;;;;;5101002;28;20212;-87
2023/02/21 10:32:04;;;;;;;32.20;17.37;;;10.50;99.90;;;;;;5099325;28;20573;-87
2023/02/21 10:34:33;;;;;;;29.97;16.37;;;10.50;99.90;;;;;;5098294;28;20232;-87
2023/02/21 10:37:06;;;;;;;26.70;14.63;;;10.50;99.90;;;;;;5102068;28;20257;-87
2023/02/21 10:39:39;;;;;;;29.67;16.30;;;10.40;99.90;;;;;;5100685;28;20658;-86
2023/02/21 10:42:12;;;;;;;27.73;15.20;;;10.40;99.90;;;;;;5100320;28;20202;-86
2023/02/21 10:44:39;;;;;;;31.23;17.50;;;10.50;99.90;;;;;;5101531;28;20312;-87
2023/02/21 10:47:17;;;;;;;28.27;16.03;;;10.60;99.90;;;;;;5102002;28;20675;-86
2023/02/21 10:49:49;;;;;;;28.27;15.70;;;10.60;99.90;;;;;;5099509;28;20190;-86
2023/02/21 10:52:20;;;;;;;29.17;16.80;;;10.60;99.90;;;;;;5099706;28;20592;-88
2023/02/21 10:55:01;;;;;;;28.10;14.33;;;10.80;99.90;;;;;;5100487;28;20243;-86
2023/02/21 10:57:28;;;;;;;26.53;15.57;;;10.70;99.90;;;;;;5100302;28;20650;-86
2023/02/21 10:59:55;;;;;;;25.20;14.07;;;10.70;99.90;;;;;;5099261;28;20733;-86
2023/02/21 11:02:30;;;;;;;28.33;15.83;;;10.90;99.90;;;;;;5098441;28;20267;-85
2023/02/21 11:05:08;;;;;;;25.87;14.00;;;11.00;99.90;;;;;;5098697;28;20584;-87
2023/02/21 11:07:36;;;;;;;27.77;16.17;;;10.90;99.90;;;;;;5099236;28;20288;-86
2023/02/21 11:10:26;;;;;;;26.47;15.27;;;10.90;99.90;;;;;;5101907;28;20650;-87
2023/02/21 11:13:06;;;;;;;24.97;14.10;;;11.00;99.90;;;;;;5099230;28;20684;-87
2023/02/21 11:15:34;;;;;;;27.17;15.17;;;11.00;99.90;;;;;;5099084;28;20223;-87
2023/02/21 11:18:11;;;;;;;23.17;14.07;;;11.10;99.90;;;;;;5098419;28;20207;-86
2023/02/21 11:20:38;;;;;;;25.53;14.10;;;11.20;99.90;;;;;;5100223;28;20679;-86
2023/02/21 11:23:17;;;;;;;25.33;14.00;;;11.30;99.90;;;;;;5099025;28;20246;-87
2023/02/21 11:25:46;;;;;;;24.80;14.47;;;11.30;99.90;;;;;;5098904;28;20244;-87
2023/02/21 11:28:20;;;;;;;23.93;13.90;;;11.40;99.90;;;;;;5099715;28;20285;-87
2023/02/21 11:30:50;;;;;;;24.93;13.40;;;11.40;99.90;;;;;;5097017;28;20213;-86
2023/02/21 11:33:20;;;;;;;23.70;13.20;;;11.50;99.90;;;;;;5116068;28;20311;-87
2023/02/21 11:35:49;;;;;;;24.33;13.47;;;11.80;99.90;;;;;;5118080;27;20225;-87
2023/02/21 11:38:35;;;;;;;24.30;13.80;;;11.60;99.90;;;;;;5092204;28;20554;-86
2023/02/21 11:41:14;;;;;;;22.30;13.23;;;11.50;99.90;;;;;;5088700;28;20220;-86
2023/02/21 11:43:46;;;;;;;22.37;12.90;;;11.50;99.90;;;;;;5090042;28;20227;-87
2023/02/21 11:46:39;;;;;;;21.17;12.23;;;11.50;99.90;;;;;;5092228;28;20259;-86
2023/02/21 11:49:15;;;;;;;22.87;13.27;;;11.40;99.90;;;;;;5091158;28;20193;-85
2023/02/21 11:51:46;;;;;;;21.73;12.43;;;11.40;99.90;;;;;;5088582;28;20206;-85
2023/02/21 11:54:13;;;;;;;20.87;12.23;;;11.50;99.90;;;;;;5100166;28;20689;-84
2023/02/21 11:56:50;;;;;;;19.20;11.23;;;11.40;99.90;;;;;;5088580;28;20234;-87
2023/02/21 11:59:39;;;;;;;21.07;12.23;;;11.50;99.90;;;;;;5079220;28;20212;-86
2023/02/21 12:02:24;;;;;;;21.57;11.93;;;11.50;99.90;;;;;;5078169;28;20287;-86
2023/02/21 12:05:02;;;;;;;20.60;11.50;;;11.50;99.90;;;;;;5079201;28;20228;-85
2023/02/21 12:07:41;;;;;;;19.43;11.27;;;11.60;99.90;;;;;;5078920;28;20577;-85
2023/02/21 12:10:35;;;;;;;19.13;11.03;;;11.40;99.90;;;;;;5094775;28;20223;-86
2023/02/21 12:13:19;;;;;;;22.93;11.83;;;11.50;99.90;;;;;;5078553;28;20250;-86
2023/02/21 12:15:54;;;;;;;19.67;10.77;;;11.60;99.90;;;;;;5078829;28;20500;-86
2023/02/21 12:18:46;;;;;;;19.00;11.07;;;11.70;99.90;;;;;;5075227;28;20247;-85
2023/02/21 12:21:31;;;;;;;19.80;11.20;;;11.60;99.90;;;;;;5075443;28;20206;-85
2023/02/21 12:24:05;;;;;;;18.20;10.73;;;12.10;99.90;;;;;;5079669;28;20283;-85
2023/02/21 12:26:46;;;;;;;17.37;9.70;;;12.50;99.90;;;;;;5077133;28;20201;-86
2023/02/21 12:29:30;;;;;;;18.37;10.17;;;12.70;99.90;;;;;;5076619;28;20564;-86
2023/02/21 12:32:15;;;;;;;17.93;10.40;;;12.90;99.90;;;;;;5075356;28;20864;-84
2023/02/21 12:34:55;;;;;;;15.67;9.50;;;13.00;99.90;;;;;;5077501;28;20713;-85
2023/02/21 12:37:29;;;;;;;16.57;9.40;;;13.20;99.90;;;;;;5092757;28;20227;-86
2023/02/21 12:40:13;;;;;;;16.07;9.37;;;12.70;99.90;;;;;;5090223;28;20245;-84
2023/02/21 12:43:07;;;;;;;16.93;10.30;;;12.60;99.90;;;;;;5096620;28;20217;-86
2023/02/21 12:45:56;;;;;;;17.07;10.17;;;12.40;99.90;;;;;;5096577;28;20204;-86
2023/02/21 12:48:29;;;;;;;18.37;9.73;;;12.20;99.90;;;;;;5097144;28;20210;-86
2023/02/21 12:51:02;;;;;;;17.57;9.60;;;12.10;99.90;;;;;;5091571;28;20202;-88
2023/02/21 12:53:34;;;;;;;19.20;10.80;;;12.10;99.90;;;;;;5071894;28;20694;-86
2023/02/21 12:56:07;;;;;;;19.10;10.73;;;12.20;99.90;;;;;;5071763;28;20297;-85
2023/02/21 12:58:39;;;;;;;18.17;9.63;;;12.10;99.90;;;;;;5072655;28;20209;-88
2023/02/21 13:01:16;;;;;;;16.03;8.70;;;12.00;99.90;;;;;;5078649;28;20216;-86
2023/02/21 13:03:52;;;;;;;17.70;9.47;;;12.00;99.90;;;;;;5079899;28;20309;-86
2023/02/21 13:06:25;;;;;;;16.13;9.63;;;11.90;99.90;;;;;;5085511;28;20205;-88
2023/02/21 13:09:02;;;;;;;16.20;9.27;;;11.70;99.90;;;;;;5091254;28;20297;-86
2023/02/21 13:11:35;;;;;;;16.13;8.90;;;11.60;99.90;;;;;;5073473;28;20244;-86
2023/02/21 13:14:02;;;;;;;15.57;8.93;;;11.60;99.90;;;;;;5073105;28;20218;-87
2023/02/21 13:16:31;;;;;;;16.30;9.40;;;12.00;99.90;;;;;;5073008;28;20313;-86
2023/02/21 13:19:02;;;;;;;17.17;9.80;;;13.00;99.90;;;;;;5078490;28;20236;-86
2023/02/21 13:21:48;;;;;;;16.77;9.50;;;12.40;99.90;;;;;;5093514;28;20212;-86
2023/02/21 13:24:44;;;;;;;14.87;8.70;;;13.00;99.90;;;;;;5091098;28;20302;-87
2023/02/21 13:27:48;;;;;;;13.70;8.27;;;12.90;99.90;;;;;;5087497;28;20201;-86
2023/02/21 13:30:25;;;;;;;13.47;8.10;;;12.90;99.90;;;;;;5092788;28;20287;-86
2023/02/21 13:32:56;;;;;;;15.83;8.53;;;13.70;99.90;;;;;;5092606;28;20213;-87
2023/02/21 13:35:30;;;;;;;13.00;8.40;;;13.70;99.90;;;;;;5090633;28;20314;-87
2023/02/21 13:37:58;;;;;;;14.67;8.10;;;13.10;99.90;;;;;;5092629;28;20612;-88
2023/02/21 13:40:34;;;;;;;13.27;8.10;;;13.00;99.90;;;;;;5092327;28;20190;-88
2023/02/21 13:43:09;;;;;;;15.40;9.10;;;13.00;99.90;;;;;;5089025;28;20254;-87
2023/02/21 13:45:36;;;;;;;13.27;7.97;;;13.30;99.90;;;;;;5099328;28;20201;-87
2023/02/21 13:48:32;;;;;;;15.30;8.93;;;13.20;99.90;;;;;;5086709;28;20240;-86
2023/02/21 13:51:00;;;;;;;14.57;8.57;;;12.90;99.90;;;;;;5092584;28;20215;-86
2023/02/21 13:53:32;;;;;;;16.13;9.73;;;13.00;99.90;;;;;;5090806;28;20317;-87
2023/02/21 13:56:42;;;;;;;15.13;9.37;;;12.90;99.90;;;;;;5094990;28;20217;-87
2023/02/21 13:59:32;;;;;;;17.20;9.97;;;12.80;99.90;;;;;;5096437;28;20180;-87
2023/02/21 14:02:20;;;;;;;18.40;9.77;;;12.60;99.90;;;;;;5091221;28;20688;-87
2023/02/21 14:05:01;;;;;;;18.57;10.27;;;12.40;99.90;;;;;;5095322;28;20253;-87
2023/02/21 14:08:06;;;;;;;17.67;10.20;;;12.20;99.90;;;;;;5096717;28;20186;-87
2023/02/21 14:10:40;;;;;;;18.57;10.17;;;11.90;99.90;;;;;;5064327;28;20205;-86
2023/02/21 14:13:20;;;;;;;19.40;10.40;;;11.90;99.90;;;;;;5076231;28;20230;-86
2023/02/21 14:15:49;;;;;;;20.83;11.90;;;11.70;99.90;;;;;;5085587;28;20228;-89
2023/02/21 14:18:21;;;;;;;19.50;11.07;;;11.80;99.90;;;;;;5096541;28;20204;-86
2023/02/21 14:20:53;;;;;;;20.03;11.27;;;11.80;99.90;;;;;;5088759;28;20236;-86
2023/02/21 14:23:24;;;;;;;22.33;11.43;;;11.70;99.90;;;;;;5103843;28;20250;-86
2023/02/21 14:25:58;;;;;;;21.80;11.03;;;11.60;99.90;;;;;;5115295;28;20213;-88
2023/02/21 14:29:10;;;;;;;20.93;11.03;;;11.50;99.90;;;;;;5117207;27;20185;-87
2023/02/21 14:31:52;;;;;;;21.63;11.73;;;11.50;99.90;;;;;;5117378;28;20201;-87
2023/02/21 14:34:32;;;;;;;20.53;10.33;;;11.40;99.90;;;;;;5116279;28;20730;-87
2023/02/21 14:37:12;;;;;;;19.67;10.73;;;11.30;99.90;;;;;;5115473;28;20609;-86
2023/02/21 14:39:43;;;;;;;22.00;11.97;;;11.30;99.90;;;;;;5115830;28;20221;-87
2023/02/21 14:42:42;;;;;;;21.07;11.70;;;11.30;99.90;;;;;;5114958;28;20304;-88
2023/02/21 14:45:51;;;;;;;22.30;12.20;;;11.30;99.90;;;;;;5075115;28;20206;-87
2023/02/21 14:48:53;;;;;;;21.70;11.73;;;11.30;99.90;;;;;;5012707;28;20210;-87
2023/02/21 14:51:54;;;;;;;21.57;11.63;;;11.30;99.90;;;;;;5072432;28;20209;-87
2023/02/21 14:54:56;;;;;;;21.17;12.03;;;11.30;99.90;;;;;;5071980;28;20600;-88
2023/02/21 14:57:49;;;;;;;21.63;11.30;;;11.20;99.90;;;;;;5074663;28;20243;-88
2023/02/21 15:00:22;;;;;;;23.33;12.87;;;11.20;99.90;;;;;;5081948;28;20681;-87
2023/02/21 15:02:54;;;;;;;21.23;11.67;;;11.10;99.90;;;;;;5094543;28;20634;-90
2023/02/21 15:05:25;;;;;;;20.57;11.90;;;11.20;99.90;;;;;;5094794;28;20270;-87
2023/02/21 15:07:59;;;;;;;20.43;12.07;;;11.10;99.90;;;;;;5095183;28;20553;-87
2023/02/21 15:10:27;;;;;;;20.87;11.90;;;11.10;99.90;;;;;;5095081;28;20244;-88
2023/02/21 15:12:58;;;;;;;21.03;12.37;;;11.10;99.90;;;;;;5094854;28;20201;-88
2023/02/21 15:15:28;;;;;;;21.43;11.93;;;11.10;99.90;;;;;;5095792;28;20212;-87